Atlantic Mine, Michigan
Current Conditions -  °F | °C
As of 9:53 AM on Sunday 21 Dec 2014 (Local Time) from KCMX Reporting Station
Overcast Overcast  
Wind Chill: -2°   Ceiling: 2400
Heat Index: -2°   Visibility: 10mi
Dew Point: -4°   Wind: 0mph
Humidity: 88%   Direction: NA
Pressure: 30.01"   Gusts: NA
Location:  47.1°N, 88.63°W
Report Text: KCMX 211453Z AUTO 00000KT 10SM FEW013 SCT019 OVC024 M02/M04 A3001 RMK AO2 SLP177 T10221039 56013
Loading
Personal Weather Stations






























Interactive Weather Map New forecast layout! Learn more

10-Day Weather Forecast

Advertisements
Track Severe Weather on mobile